Time;durP1;ratioP1;P1;durP2;ratioP2;P2;SDS_P1;SDS_P2;PMS_P1;PMS_P2;Temp;Humidity;BMP_temperature;BMP_pressure;BME280_temperature;BME280_humidity;BME280_pressure;Samples;Min_cycle;Max_cycle;Signal;HPM_P1;HPM_P2
2021/03/03 00:00:20;;;;;;;;;;;18.60;34.30;;;;;;5034296;28;1961;-67
2021/03/03 00:02:45;;;;;;;;;;;18.50;34.10;;;;;;5034148;28;1375;-67
2021/03/03 00:05:11;;;;;;;;;;;18.50;34.40;;;;;;5016628;28;1661;-67
2021/03/03 00:07:36;;;;;;;;;;;18.40;34.30;;;;;;5033984;28;1419;-68
2021/03/03 00:10:05;;;;;;;;;;;18.40;34.40;;;;;;5034352;28;1581;-67
2021/03/03 00:12:30;;;;;;;;;;;18.40;34.40;;;;;;5034163;28;1292;-67
2021/03/03 00:14:56;;;;;;;;;;;18.30;34.40;;;;;;5034193;28;1380;-68
2021/03/03 00:17:21;;;;;;;;;;;18.30;34.50;;;;;;5033664;28;1796;-67
2021/03/03 00:19:47;;;;;;;;;;;18.30;34.50;;;;;;5033923;28;1944;-68
2021/03/03 00:22:12;;;;;;;;;;;18.20;34.40;;;;;;5034083;28;1674;-68
2021/03/03 00:24:37;;;;;;;;;;;18.20;34.50;;;;;;5038287;28;1545;-66
2021/03/03 00:27:03;;;;;;;;;;;18.10;34.60;;;;;;5051184;28;1351;-67
2021/03/03 00:29:28;;;;;;;;;;;18.10;34.60;;;;;;5030773;28;1339;-67
2021/03/03 00:31:54;;;;;;;;;;;18.10;34.70;;;;;;5039798;28;1141;-68
2021/03/03 00:34:19;;;;;;;;;;;18.00;34.60;;;;;;5053627;28;1146;-67
2021/03/03 00:36:44;;;;;;;;;;;18.00;34.60;;;;;;5053590;28;1284;-67
2021/03/03 00:39:10;;;;;;;;;;;18.00;34.70;;;;;;5053244;28;1921;-67
2021/03/03 00:41:35;;;;;;;;;;;17.90;34.80;;;;;;5031288;28;1347;-67
2021/03/03 00:44:01;;;;;;;;;;;17.90;34.70;;;;;;5044198;28;1264;-68
2021/03/03 00:46:26;;;;;;;;;;;17.90;34.70;;;;;;5049352;28;1375;-67
2021/03/03 00:48:52;;;;;;;;;;;17.80;34.70;;;;;;5032961;28;1279;-68
2021/03/03 00:51:17;;;;;;;;;;;17.80;34.80;;;;;;5015601;28;1301;-67
2021/03/03 00:53:44;;;;;;;;;;;17.80;34.80;;;;;;5033340;28;1335;-67
2021/03/03 00:56:09;;;;;;;;;;;17.70;34.80;;;;;;5033297;28;1307;-67
2021/03/03 00:58:34;;;;;;;;;;;17.70;34.80;;;;;;5015084;28;1356;-67
2021/03/03 01:01:00;;;;;;;;;;;17.70;34.90;;;;;;5032951;28;1910;-68
2021/03/03 01:03:25;;;;;;;;;;;17.60;34.70;;;;;;5033180;28;1052;-67
2021/03/03 01:05:51;;;;;;;;;;;17.60;34.80;;;;;;5032945;28;1232;-67
2021/03/03 01:08:16;;;;;;;;;;;17.60;34.90;;;;;;5032913;28;1259;-67
2021/03/03 01:10:42;;;;;;;;;;;17.60;34.90;;;;;;5032943;28;1111;-67
2021/03/03 01:13:07;;;;;;;;;;;17.50;34.90;;;;;;5033134;28;1293;-67
2021/03/03 01:15:33;;;;;;;;;;;17.50;35.00;;;;;;5032676;28;1041;-67
2021/03/03 01:18:01;;;;;;;;;;;17.50;35.10;;;;;;5014728;28;1485;-68
2021/03/03 01:20:29;;;;;;;;;;;17.50;35.10;;;;;;5032802;28;1902;-68
2021/03/03 01:22:55;;;;;;;;;;;17.40;35.10;;;;;;5032889;28;1470;-67
2021/03/03 01:25:20;;;;;;;;;;;17.40;35.10;;;;;;5032639;28;973;-68
2021/03/03 01:27:45;;;;;;;;;;;17.40;35.10;;;;;;5032411;28;1517;-67
2021/03/03 01:30:11;;;;;;;;;;;17.40;35.20;;;;;;5043121;28;1224;-67
2021/03/03 01:32:37;;;;;;;;;;;17.40;35.10;;;;;;5032464;28;1269;-68
2021/03/03 01:35:02;;;;;;;;;;;17.30;35.10;;;;;;5031202;28;1151;-67
2021/03/03 01:37:28;;;;;;;;;;;17.30;35.10;;;;;;5052053;28;1430;-67
2021/03/03 01:39:53;;;;;;;;;;;17.30;35.10;;;;;;5034033;28;1902;-67
2021/03/03 01:42:18;;;;;;;;;;;17.30;35.20;;;;;;5042091;28;1342;-67
2021/03/03 01:44:44;;;;;;;;;;;17.30;35.20;;;;;;5013531;28;1359;-67
2021/03/03 01:47:09;;;;;;;;;;;17.20;35.30;;;;;;5017236;28;1089;-68
2021/03/03 01:49:35;;;;;;;;;;;17.20;35.30;;;;;;5014191;28;1333;-67
2021/03/03 01:52:00;;;;;;;;;;;17.20;35.30;;;;;;5031923;28;1234;-67
2021/03/03 01:54:25;;;;;;;;;;;17.20;35.30;;;;;;5014310;28;1277;-68
2021/03/03 01:56:51;;;;;;;;;;;17.20;35.20;;;;;;5031938;28;1346;-67
2021/03/03 01:59:16;;;;;;;;;;;17.10;35.20;;;;;;5031308;28;1969;-67
2021/03/03 02:01:42;;;;;;;;;;;17.10;35.20;;;;;;5031644;28;1163;-67
2021/03/03 02:04:07;;;;;;;;;;;17.10;35.30;;;;;;5031704;28;1040;-68
2021/03/03 02:06:42;;;;;;;;;;;17.10;35.30;;;;;;5032018;28;1117;-67
2021/03/03 02:09:26;;;;;;;;;;;17.10;35.40;;;;;;5013981;28;1433;-67
2021/03/03 02:11:57;;;;;;;;;;;17.00;35.40;;;;;;5031363;28;1298;-68
2021/03/03 02:14:24;;;;;;;;;;;17.00;35.40;;;;;;5031637;28;1301;-67
2021/03/03 02:16:50;;;;;;;;;;;17.00;35.30;;;;;;5031681;28;1322;-68
2021/03/03 02:19:18;;;;;;;;;;;17.00;35.30;;;;;;5013532;28;1910;-67
2021/03/03 02:21:44;;;;;;;;;;;16.90;35.20;;;;;;5013891;28;1358;-67
2021/03/03 02:24:10;;;;;;;;;;;16.90;35.30;;;;;;5014002;28;1299;-67
2021/03/03 02:26:35;;;;;;;;;;;16.90;35.30;;;;;;5013445;28;1316;-67
2021/03/03 02:29:05;;;;;;;;;;;16.90;35.40;;;;;;5035743;28;1350;-68
2021/03/03 02:31:31;;;;;;;;;;;16.80;35.40;;;;;;5018362;28;1058;-67
2021/03/03 02:33:56;;;;;;;;;;;16.80;35.40;;;;;;5031428;28;1341;-67
2021/03/03 02:36:22;;;;;;;;;;;16.80;35.30;;;;;;5030395;28;1265;-67
2021/03/03 02:38:47;;;;;;;;;;;16.80;35.40;;;;;;5022177;28;1422;-68
2021/03/03 02:41:14;;;;;;;;;;;16.90;35.40;;;;;;5032196;28;1910;-67
2021/03/03 02:43:40;;;;;;;;;;;16.90;35.20;;;;;;5034379;28;1292;-68
2021/03/03 02:46:06;;;;;;;;;;;16.90;35.10;;;;;;5031511;28;1276;-66
2021/03/03 02:48:31;;;;;;;;;;;16.90;35.10;;;;;;5032112;28;1313;-66
2021/03/03 02:50:56;;;;;;;;;;;16.90;35.10;;;;;;5030719;28;1232;-68
2021/03/03 02:53:22;;;;;;;;;;;16.90;35.10;;;;;;5031376;28;1257;-67
2021/03/03 02:55:47;;;;;;;;;;;16.90;35.10;;;;;;5048330;28;1161;-68
2021/03/03 02:58:13;;;;;;;;;;;16.90;35.10;;;;;;5051964;28;1418;-67
2021/03/03 03:00:41;;;;;;;;;;;16.90;35.10;;;;;;5053238;28;1902;-68
2021/03/03 03:03:12;;;;;;;;;;;16.90;35.10;;;;;;5037912;28;1279;-67
2021/03/03 03:05:38;;;;;;;;;;;16.90;35.20;;;;;;5036171;28;1161;-68
2021/03/03 03:08:04;;;;;;;;;;;16.80;35.20;;;;;;5036035;28;1272;-68
2021/03/03 03:10:29;;;;;;;;;;;16.80;35.10;;;;;;5033809;28;1266;-67
2021/03/03 03:12:56;;;;;;;;;;;16.80;35.20;;;;;;5035021;28;1252;-67
2021/03/03 03:15:22;;;;;;;;;;;16.80;35.20;;;;;;5037637;28;1225;-66
2021/03/03 03:17:49;;;;;;;;;;;16.80;35.20;;;;;;5054591;28;1220;-66
2021/03/03 03:20:15;;;;;;;;;;;16.80;35.20;;;;;;5035291;28;1971;-67
2021/03/03 03:22:41;;;;;;;;;;;16.80;35.20;;;;;;5035903;28;1287;-68
2021/03/03 03:25:06;;;;;;;;;;;16.70;35.10;;;;;;5033337;28;1276;-66
2021/03/03 03:27:32;;;;;;;;;;;16.70;35.10;;;;;;5036470;28;1206;-68
2021/03/03 03:29:58;;;;;;;;;;;16.70;35.10;;;;;;5035585;28;1394;-67
2021/03/03 03:32:23;;;;;;;;;;;16.70;35.30;;;;;;5053622;28;1330;-67
2021/03/03 03:34:49;;;;;;;;;;;16.70;35.30;;;;;;5035375;28;1225;-67
2021/03/03 03:37:14;;;;;;;;;;;16.70;35.30;;;;;;5052373;28;1264;-67
2021/03/03 03:39:40;;;;;;;;;;;16.60;35.30;;;;;;5034110;28;1979;-67
2021/03/03 03:42:05;;;;;;;;;;;16.60;35.30;;;;;;5028504;28;1237;-69
2021/03/03 03:44:31;;;;;;;;;;;16.60;35.20;;;;;;5017359;28;1292;-68
2021/03/03 03:46:56;;;;;;;;;;;16.60;35.30;;;;;;5035296;28;1295;-66
2021/03/03 03:49:22;;;;;;;;;;;16.60;35.40;;;;;;5016451;28;1300;-67
2021/03/03 03:51:48;;;;;;;;;;;16.60;35.40;;;;;;5016988;28;1352;-68
2021/03/03 03:54:13;;;;;;;;;;;16.60;35.50;;;;;;5016895;28;1325;-67
2021/03/03 03:56:39;;;;;;;;;;;16.60;36.10;;;;;;5017634;28;1077;-67
2021/03/03 03:59:04;;;;;;;;;;;16.50;35.40;;;;;;5017551;28;1394;-67
2021/03/03 04:01:30;;;;;;;;;;;16.50;35.40;;;;;;5035377;28;1993;-68
2021/03/03 04:03:55;;;;;;;;;;;16.50;35.40;;;;;;5017665;28;1311;-67
2021/03/03 04:06:21;;;;;;;;;;;16.50;35.30;;;;;;5017369;28;1278;-67
2021/03/03 04:08:46;;;;;;;;;;;16.50;35.30;;;;;;5034291;28;1341;-67
2021/03/03 04:11:12;;;;;;;;;;;16.50;35.30;;;;;;5035131;28;1281;-67
2021/03/03 04:13:37;;;;;;;;;;;16.50;35.20;;;;;;5035543;28;1326;-67
2021/03/03 04:16:03;;;;;;;;;;;16.60;35.20;;;;;;5017358;28;1352;-69
2021/03/03 04:18:28;;;;;;;;;;;16.60;35.10;;;;;;5034804;28;1282;-68
2021/03/03 04:20:53;;;;;;;;;;;16.70;35.10;;;;;;5017091;28;1902;-67
2021/03/03 04:23:19;;;;;;;;;;;16.90;35.10;;;;;;5017216;28;1226;-68
2021/03/03 04:25:44;;;;;;;;;;;17.00;35.10;;;;;;5034678;28;1391;-67
2021/03/03 04:28:10;;;;;;;;;;;17.10;35.00;;;;;;5016939;28;1312;-68
2021/03/03 04:30:35;;;;;;;;;;;17.30;34.90;;;;;;5045113;28;1210;-67
2021/03/03 04:33:01;;;;;;;;;;;17.40;34.60;;;;;;5017151;28;1121;-66
2021/03/03 04:35:26;;;;;;;;;;;17.50;34.40;;;;;;5054691;28;1339;-66
2021/03/03 04:37:52;;;;;;;;;;;17.60;34.20;;;;;;5036165;28;1347;-67
2021/03/03 04:40:17;;;;;;;;;;;17.70;33.90;;;;;;5054556;28;1961;-68
2021/03/03 04:42:43;;;;;;;;;;;17.80;33.70;;;;;;5023184;28;1320;-68
2021/03/03 04:45:08;;;;;;;;;;;17.90;33.60;;;;;;5034571;28;1488;-68
2021/03/03 04:47:34;;;;;;;;;;;18.00;33.40;;;;;;5016311;28;1336;-69
2021/03/03 04:49:59;;;;;;;;;;;18.10;33.40;;;;;;5040913;28;1410;-68
2021/03/03 04:52:24;;;;;;;;;;;18.10;33.20;;;;;;5036190;28;1325;-68
2021/03/03 04:54:50;;;;;;;;;;;18.20;33.10;;;;;;5054078;28;1381;-68
2021/03/03 04:57:16;;;;;;;;;;;18.20;33.00;;;;;;5054008;28;913;-68
2021/03/03 04:59:41;;;;;;;;;;;18.30;32.80;;;;;;5036111;28;1886;-69
2021/03/03 05:02:07;;;;;;;;;;;18.30;32.80;;;;;;5054223;28;1314;-69
2021/03/03 05:04:32;;;;;;;;;;;18.30;32.60;;;;;;5053989;28;1403;-69
2021/03/03 05:06:57;;;;;;;;;;;18.30;32.60;;;;;;5053821;28;1328;-68
2021/03/03 05:09:23;;;;;;;;;;;18.40;32.50;;;;;;5035834;28;1356;-68
2021/03/03 05:11:48;;;;;;;;;;;18.40;32.30;;;;;;5053918;28;1312;-68
2021/03/03 05:14:14;;;;;;;;;;;18.40;32.20;;;;;;5053954;28;1576;-68
2021/03/03 05:16:40;;;;;;;;;;;18.40;32.20;;;;;;5053924;28;1337;-68
2021/03/03 05:19:05;;;;;;;;;;;18.50;32.10;;;;;;5052621;28;1354;-68
2021/03/03 05:21:31;;;;;;;;;;;18.50;31.90;;;;;;5053287;28;1961;-68
2021/03/03 05:23:56;;;;;;;;;;;18.50;31.90;;;;;;5035908;28;1332;-68
2021/03/03 05:26:22;;;;;;;;;;;18.50;31.90;;;;;;5035865;28;1285;-68
2021/03/03 05:28:47;;;;;;;;;;;18.50;31.80;;;;;;5053057;28;1319;-68
2021/03/03 05:31:13;;;;;;;;;;;18.50;31.70;;;;;;5041601;28;1302;-68
2021/03/03 05:33:38;;;;;;;;;;;18.50;31.70;;;;;;5021256;28;1326;-68
2021/03/03 05:36:05;;;;;;;;;;;18.60;31.60;;;;;;5035271;28;1356;-69
2021/03/03 05:38:34;;;;;;;;;;;18.60;31.70;;;;;;5052971;28;1359;-66
2021/03/03 05:40:59;;;;;;;;;;;18.60;31.60;;;;;;5053286;28;1906;-67
2021/03/03 05:43:24;;;;;;;;;;;18.60;31.50;;;;;;5034081;28;1399;-68
2021/03/03 05:45:50;;;;;;;;;;;18.60;31.50;;;;;;5033333;28;1340;-68
2021/03/03 05:48:19;;;;;;;;;;;18.60;31.50;;;;;;5015543;28;1332;-68
2021/03/03 05:50:45;;;;;;;;;;;18.60;31.40;;;;;;5015594;28;2153;-67
2021/03/03 05:53:12;;;;;;;;;;;18.60;31.40;;;;;;5033049;28;1041;-68
2021/03/03 05:55:37;;;;;;;;;;;18.60;31.10;;;;;;5015666;28;1302;-67
2021/03/03 05:58:02;;;;;;;;;;;18.60;31.10;;;;;;5015046;28;1255;-69
2021/03/03 06:00:29;;;;;;;;;;;18.60;31.10;;;;;;5015491;28;1894;-67
2021/03/03 06:02:54;;;;;;;;;;;18.70;31.10;;;;;;5015426;28;1381;-67
2021/03/03 06:05:20;;;;;;;;;;;18.70;31.10;;;;;;5015316;28;1372;-67
2021/03/03 06:07:46;;;;;;;;;;;18.70;30.90;;;;;;5032889;28;1333;-68
2021/03/03 06:10:11;;;;;;;;;;;18.70;31.10;;;;;;5032927;28;1370;-68
2021/03/03 06:12:37;;;;;;;;;;;18.70;31.00;;;;;;5033058;28;1336;-67
2021/03/03 06:15:02;;;;;;;;;;;18.70;30.90;;;;;;5032899;28;1295;-68
2021/03/03 06:17:28;;;;;;;;;;;18.70;30.90;;;;;;5032624;28;1349;-67
2021/03/03 06:19:53;;;;;;;;;;;18.70;30.80;;;;;;5032759;28;1898;-68
2021/03/03 06:22:22;;;;;;;;;;;18.70;30.90;;;;;;5015163;28;1208;-68
2021/03/03 06:24:48;;;;;;;;;;;18.70;30.80;;;;;;5033133;28;1351;-68
2021/03/03 06:27:13;;;;;;;;;;;18.70;31.50;;;;;;5014790;28;1285;-68
2021/03/03 06:29:39;;;;;;;;;;;18.70;30.80;;;;;;5024161;28;1290;-68
2021/03/03 06:32:04;;;;;;;;;;;18.80;30.80;;;;;;5034489;28;1300;-68
2021/03/03 06:34:30;;;;;;;;;;;18.80;30.90;;;;;;5027130;28;1288;-67
2021/03/03 06:36:55;;;;;;;;;;;18.80;31.00;;;;;;5052480;28;1363;-68
2021/03/03 06:39:22;;;;;;;;;;;18.80;31.00;;;;;;5052275;28;1967;-68
2021/03/03 06:41:48;;;;;;;;;;;18.80;31.00;;;;;;5046978;28;1347;-68
2021/03/03 06:44:13;;;;;;;;;;;18.80;31.10;;;;;;5032734;28;1374;-69
2021/03/03 06:46:38;;;;;;;;;;;18.80;31.20;;;;;;5015287;28;1375;-69
2021/03/03 06:49:04;;;;;;;;;;;18.80;31.30;;;;;;5014188;28;1255;-69
2021/03/03 06:51:30;;;;;;;;;;;18.80;31.40;;;;;;5015002;28;1404;-68
2021/03/03 06:53:56;;;;;;;;;;;18.80;31.40;;;;;;5032611;28;1285;-68
2021/03/03 06:56:35;;;;;;;;;;;18.80;31.40;;;;;;5032535;28;1116;-67
2021/03/03 06:59:12;;;;;;;;;;;18.80;31.50;;;;;;5032126;28;1349;-68
2021/03/03 07:01:38;;;;;;;;;;;18.80;31.50;;;;;;5032384;28;1403;-68
2021/03/03 07:04:04;;;;;;;;;;;18.80;31.50;;;;;;5014890;28;1300;-69
2021/03/03 07:06:32;;;;;;;;;;;18.80;31.60;;;;;;5032572;28;1272;-68
2021/03/03 07:09:01;;;;;;;;;;;18.80;31.60;;;;;;5014462;28;1377;-68
2021/03/03 07:11:29;;;;;;;;;;;18.80;31.60;;;;;;5032438;28;1318;-68
2021/03/03 07:13:55;;;;;;;;;;;18.80;31.70;;;;;;5032185;28;1349;-68
2021/03/03 07:16:20;;;;;;;;;;;18.80;31.80;;;;;;5014694;28;1339;-68
2021/03/03 07:18:46;;;;;;;;;;;18.80;32.00;;;;;;5031988;28;1387;-68
2021/03/03 07:21:11;;;;;;;;;;;18.90;32.00;;;;;;5032192;28;1966;-68
2021/03/03 07:23:43;;;;;;;;;;;18.90;32.00;;;;;;5032344;28;1324;-68
2021/03/03 07:26:10;;;;;;;;;;;18.90;32.00;;;;;;5032226;28;1283;-68
2021/03/03 07:28:35;;;;;;;;;;;18.90;32.10;;;;;;5032100;28;1429;-68
2021/03/03 07:31:01;;;;;;;;;;;18.90;32.20;;;;;;5024840;28;1272;-68
2021/03/03 07:33:26;;;;;;;;;;;18.90;32.20;;;;;;5018500;28;1398;-68
2021/03/03 07:35:52;;;;;;;;;;;18.90;32.20;;;;;;5034295;28;1264;-68
2021/03/03 07:38:17;;;;;;;;;;;18.90;32.30;;;;;;5051602;28;1360;-68
2021/03/03 07:40:42;;;;;;;;;;;18.90;32.40;;;;;;5034716;28;1959;-68
2021/03/03 07:43:08;;;;;;;;;;;18.90;32.50;;;;;;5036201;28;1298;-68
2021/03/03 07:45:37;;;;;;;;;;;18.90;32.50;;;;;;5018122;28;1395;-67
2021/03/03 07:48:04;;;;;;;;;;;18.90;32.70;;;;;;5035154;28;1319;-68
2021/03/03 07:50:29;;;;;;;;;;;18.90;32.80;;;;;;5035639;28;1340;-68
2021/03/03 07:52:55;;;;;;;;;;;18.90;32.70;;;;;;5035378;28;1317;-68
2021/03/03 07:55:21;;;;;;;;;;;18.90;32.70;;;;;;5035728;28;1377;-68
2021/03/03 07:57:48;;;;;;;;;;;18.90;33.10;;;;;;5034733;28;1393;-68
2021/03/03 08:00:15;;;;;;;;;;;18.90;33.20;;;;;;5017795;28;1902;-68
2021/03/03 08:02:43;;;;;;;;;;;19.00;33.30;;;;;;5017578;28;1308;-69
2021/03/03 08:05:09;;;;;;;;;;;19.10;33.40;;;;;;5035335;28;1401;-68
2021/03/03 08:07:35;;;;;;;;;;;19.10;33.40;;;;;;5017277;28;1364;-66
2021/03/03 08:10:20;;;;;;;;;;;19.20;33.50;;;;;;5017570;28;1259;-67
2021/03/03 08:12:58;;;;;;;;;;;19.30;33.60;;;;;;5042018;28;1256;-66
2021/03/03 08:15:30;;;;;;;;;;;19.40;33.70;;;;;;5037230;28;1342;-67
2021/03/03 08:18:14;;;;;;;;;;;19.50;33.80;;;;;;5037028;28;1239;-67
2021/03/03 08:20:57;;;;;;;;;;;19.50;33.90;;;;;;5054629;28;1875;-67
2021/03/03 08:23:32;;;;;;;;;;;19.50;34.00;;;;;;5055259;28;1268;-68
2021/03/03 08:25:57;;;;;;;;;;;19.60;34.10;;;;;;5054938;28;1324;-68
2021/03/03 08:31:21;;;;;;;;;;;19.70;34.30;;;;;;5030722;28;1636;-64
2021/03/03 08:33:50;;;;;;;;;;;19.70;34.30;;;;;;5033821;28;1366;-64
2021/03/03 08:36:21;;;;;;;;;;;19.80;34.70;;;;;;5034319;28;1125;-64
2021/03/03 08:38:47;;;;;;;;;;;19.80;34.60;;;;;;5033665;28;1966;-64
2021/03/03 08:41:15;;;;;;;;;;;19.80;34.60;;;;;;5033442;28;1918;-64
2021/03/03 08:43:41;;;;;;;;;;;19.90;34.70;;;;;;5031376;28;1519;-64
2021/03/03 08:46:22;;;;;;;;;;;19.90;34.80;;;;;;5020496;28;1397;-64
2021/03/03 08:48:53;;;;;;;;;;;19.90;34.90;;;;;;5014605;28;1375;-63
2021/03/03 08:51:31;;;;;;;;;;;19.90;35.00;;;;;;5014667;28;1417;-63
2021/03/03 08:54:00;;;;;;;;;;;19.90;35.10;;;;;;5013809;28;1649;-64
2021/03/03 08:56:38;;;;;;;;;;;19.90;35.20;;;;;;4997386;28;1326;-63
2021/03/03 08:59:10;;;;;;;;;;;19.90;35.30;;;;;;4996772;28;1504;-63
2021/03/03 09:01:54;;;;;;;;;;;20.00;35.40;;;;;;4997084;28;1973;-62
2021/03/03 09:04:27;;;;;;;;;;;20.00;35.50;;;;;;5014497;28;1674;-62
2021/03/03 09:06:56;;;;;;;;;;;20.00;35.60;;;;;;5014627;28;1361;-62
2021/03/03 09:09:22;;;;;;;;;;;20.00;35.70;;;;;;4996850;28;1369;-62
2021/03/03 09:11:56;;;;;;;;;;;20.00;35.80;;;;;;5014514;28;1657;-62
2021/03/03 09:14:21;;;;;;;;;;;20.00;35.90;;;;;;5010194;28;1228;-62
2021/03/03 09:17:00;;;;;;;;;;;20.00;36.00;;;;;;5009096;28;2272;-64
2021/03/03 09:19:25;;;;;;;;;;;20.00;36.10;;;;;;5008404;28;1967;-64
2021/03/03 09:21:51;;;;;;;;;;;20.00;36.20;;;;;;5018515;28;1365;-62
2021/03/03 09:24:16;;;;;;;;;;;20.00;36.30;;;;;;5019514;28;1379;-62
2021/03/03 09:26:43;;;;;;;;;;;20.00;36.40;;;;;;5030510;28;1389;-64
2021/03/03 09:29:27;;;;;;;;;;;20.00;36.50;;;;;;5022244;28;1267;-62
2021/03/03 09:31:53;;;;;;;;;;;20.00;36.70;;;;;;5001136;28;1400;-61
2021/03/03 09:34:18;;;;;;;;;;;20.00;36.70;;;;;;5012864;28;1537;-62
2021/03/03 09:36:56;;;;;;;;;;;20.00;36.80;;;;;;5010859;28;1635;-62
2021/03/03 09:39:22;;;;;;;;;;;20.00;36.90;;;;;;5012553;28;2050;-65
2021/03/03 09:42:01;;;;;;;;;;;20.00;37.00;;;;;;5036927;28;1710;-66
2021/03/03 09:44:26;;;;;;;;;;;20.00;37.10;;;;;;5010727;28;2248;-65
2021/03/03 09:46:56;;;;;;;;;;;20.00;37.10;;;;;;5036964;28;1519;-65
2021/03/03 09:49:22;;;;;;;;;;;20.00;37.20;;;;;;5016244;28;1607;-65
2021/03/03 09:51:48;;;;;;;;;;;20.10;37.30;;;;;;5000368;28;1655;-65
2021/03/03 09:54:32;;;;;;;;;;;20.10;37.40;;;;;;5033795;28;2033;-65
2021/03/03 09:57:01;;;;;;;;;;;20.10;37.40;;;;;;5032738;28;1567;-65
2021/03/03 09:59:26;;;;;;;;;;;20.10;37.50;;;;;;5032150;28;1898;-65
2021/03/03 10:01:52;;;;;;;;;;;20.10;37.50;;;;;;5003042;28;1692;-65
2021/03/03 10:04:17;;;;;;;;;;;20.10;37.60;;;;;;5025852;28;1580;-64
2021/03/03 10:06:43;;;;;;;;;;;20.10;37.60;;;;;;5014388;28;1548;-64
2021/03/03 10:09:09;;;;;;;;;;;20.10;37.60;;;;;;5012967;28;1673;-65
2021/03/03 10:11:34;;;;;;;;;;;20.10;37.70;;;;;;4999617;28;2161;-65
2021/03/03 10:14:04;;;;;;;;;;;20.10;38.00;;;;;;5013516;28;1987;-65
2021/03/03 10:16:29;;;;;;;;;;;20.10;39.40;;;;;;5016457;28;1792;-63
2021/03/03 10:19:01;;;;;;;;;;;20.10;39.30;;;;;;5037260;28;2034;-63
2021/03/03 10:21:27;;;;;;;;;;;20.10;39.20;;;;;;5014962;28;1989;-63
2021/03/03 10:23:52;;;;;;;;;;;20.10;39.20;;;;;;5032501;28;1363;-63
2021/03/03 10:26:21;;;;;;;;;;;20.10;39.10;;;;;;5023426;28;1263;-64
2021/03/03 10:28:50;;;;;;;;;;;20.10;39.10;;;;;;4998358;28;1600;-63
2021/03/03 10:31:16;;;;;;;;;;;20.10;39.00;;;;;;5015078;28;2318;-66
2021/03/03 10:33:41;;;;;;;;;;;20.10;39.00;;;;;;5005828;28;1742;-65
2021/03/03 10:36:19;;;;;;;;;;;20.10;39.00;;;;;;5030563;28;1084;-65
2021/03/03 10:38:49;;;;;;;;;;;20.10;38.90;;;;;;4994944;28;1380;-65
2021/03/03 10:41:21;;;;;;;;;;;20.10;38.90;;;;;;5037442;28;1906;-65
2021/03/03 10:43:48;;;;;;;;;;;20.10;39.00;;;;;;5011903;28;1647;-64
2021/03/03 10:46:14;;;;;;;;;;;20.20;39.00;;;;;;4994551;28;1321;-63
2021/03/03 10:48:39;;;;;;;;;;;20.10;39.00;;;;;;4977331;28;1314;-64
2021/03/03 10:51:05;;;;;;;;;;;20.10;39.10;;;;;;4994480;28;1660;-64
2021/03/03 10:53:49;;;;;;;;;;;20.10;39.10;;;;;;5018493;28;1172;-63
2021/03/03 10:56:27;;;;;;;;;;;20.10;39.20;;;;;;5023183;28;1380;-64
2021/03/03 10:58:53;;;;;;;;;;;20.10;39.30;;;;;;5018086;28;1375;-64
2021/03/03 11:01:19;;;;;;;;;;;20.10;39.30;;;;;;5010619;28;1898;-64
2021/03/03 11:03:48;;;;;;;;;;;20.10;39.40;;;;;;5026319;28;2050;-63
2021/03/03 11:06:14;;;;;;;;;;;20.10;39.50;;;;;;5034147;28;1516;-64
2021/03/03 11:08:39;;;;;;;;;;;20.00;39.50;;;;;;5039341;28;1567;-63
2021/03/03 11:11:05;;;;;;;;;;;20.00;39.60;;;;;;5029299;28;1506;-63
2021/03/03 11:13:31;;;;;;;;;;;20.00;39.70;;;;;;5035317;28;1385;-64
2021/03/03 11:15:56;;;;;;;;;;;20.00;39.80;;;;;;5002264;28;1614;-63
2021/03/03 11:18:21;;;;;;;;;;;19.90;39.80;;;;;;5013445;28;1256;-63
2021/03/03 11:20:47;;;;;;;;;;;19.90;39.90;;;;;;5029652;28;1898;-64
2021/03/03 11:23:12;;;;;;;;;;;19.90;40.00;;;;;;5042473;28;1506;-64
2021/03/03 11:25:38;;;;;;;;;;;19.90;40.10;;;;;;5015646;28;1563;-64
2021/03/03 11:28:03;;;;;;;;;;;19.80;40.10;;;;;;5014895;28;1339;-64
2021/03/03 11:30:29;;;;;;;;;;;19.80;40.20;;;;;;5034948;28;1613;-64
2021/03/03 11:32:54;;;;;;;;;;;19.80;40.40;;;;;;5014569;28;1658;-65
2021/03/03 11:35:20;;;;;;;;;;;19.80;40.80;;;;;;5027183;28;2000;-64
2021/03/03 11:37:45;;;;;;;;;;;19.70;40.80;;;;;;5013487;28;1270;-64
2021/03/03 11:40:11;;;;;;;;;;;19.80;41.00;;;;;;5005594;28;1910;-65
2021/03/03 11:42:37;;;;;;;;;;;19.70;41.00;;;;;;5029142;28;1372;-65
2021/03/03 11:45:02;;;;;;;;;;;19.70;41.00;;;;;;5013916;28;1341;-64
2021/03/03 11:47:28;;;;;;;;;;;19.70;41.20;;;;;;5013895;28;1624;-64
2021/03/03 11:49:53;;;;;;;;;;;19.60;41.20;;;;;;5014381;28;1638;-64
2021/03/03 11:52:18;;;;;;;;;;;19.70;41.40;;;;;;5014973;28;1006;-64
2021/03/03 11:54:44;;;;;;;;;;;19.60;41.40;;;;;;5014906;28;1657;-64
2021/03/03 11:57:10;;;;;;;;;;;19.60;41.50;;;;;;5014512;28;1613;-67
2021/03/03 11:59:35;;;;;;;;;;;19.60;41.60;;;;;;5014650;28;1906;-68
2021/03/03 12:02:01;;;;;;;;;;;19.50;41.60;;;;;;5014660;28;1363;-68
2021/03/03 12:04:26;;;;;;;;;;;19.50;41.70;;;;;;5014739;28;1655;-67
2021/03/03 12:06:52;;;;;;;;;;;19.50;41.80;;;;;;5014587;28;1675;-68
2021/03/03 12:09:17;;;;;;;;;;;19.50;41.80;;;;;;5014370;28;1339;-68
2021/03/03 12:11:43;;;;;;;;;;;19.50;41.90;;;;;;5014432;28;1368;-67
2021/03/03 12:14:08;;;;;;;;;;;19.50;42.00;;;;;;5032846;28;1362;-67
2021/03/03 12:16:34;;;;;;;;;;;19.40;42.00;;;;;;5014566;28;1536;-66
2021/03/03 12:18:59;;;;;;;;;;;19.40;42.10;;;;;;5014109;28;1454;-66
2021/03/03 12:21:25;;;;;;;;;;;19.40;42.20;;;;;;5014466;28;1953;-68
2021/03/03 12:23:50;;;;;;;;;;;19.40;42.20;;;;;;5014039;28;1525;-65
2021/03/03 12:26:15;;;;;;;;;;;19.40;42.30;;;;;;5014467;28;1353;-68
2021/03/03 12:28:41;;;;;;;;;;;19.40;42.30;;;;;;5015829;28;1744;-66
2021/03/03 12:31:06;;;;;;;;;;;19.40;42.40;;;;;;5014896;28;1684;-65
2021/03/03 12:33:32;;;;;;;;;;;19.30;42.40;;;;;;5013989;28;1646;-66
2021/03/03 12:35:57;;;;;;;;;;;19.30;42.40;;;;;;5024441;28;1980;-65
2021/03/03 12:38:23;;;;;;;;;;;19.30;42.50;;;;;;5036875;28;1604;-64
2021/03/03 12:40:48;;;;;;;;;;;19.30;42.60;;;;;;5016724;28;1986;-66
2021/03/03 12:43:13;;;;;;;;;;;19.30;42.60;;;;;;4998174;28;1423;-66
2021/03/03 12:45:39;;;;;;;;;;;19.30;42.70;;;;;;5014182;28;1617;-65
2021/03/03 12:48:04;;;;;;;;;;;19.30;42.70;;;;;;5013482;28;1484;-66
2021/03/03 12:50:30;;;;;;;;;;;19.30;42.80;;;;;;5014210;28;1683;-66
2021/03/03 12:52:55;;;;;;;;;;;19.30;42.80;;;;;;5020262;28;1342;-63
2021/03/03 12:55:21;;;;;;;;;;;19.20;42.90;;;;;;5022847;28;1502;-63
2021/03/03 12:57:46;;;;;;;;;;;19.30;42.90;;;;;;5030280;28;1385;-64
2021/03/03 13:00:12;;;;;;;;;;;19.30;42.90;;;;;;5033406;28;1953;-64
2021/03/03 13:02:37;;;;;;;;;;;19.30;42.80;;;;;;5015405;28;1391;-65
2021/03/03 13:05:03;;;;;;;;;;;19.40;42.80;;;;;;5015658;28;1287;-62
2021/03/03 13:07:29;;;;;;;;;;;19.50;42.70;;;;;;5033113;28;1464;-62
2021/03/03 13:09:54;;;;;;;;;;;19.50;42.60;;;;;;5033184;28;1205;-63
2021/03/03 13:12:19;;;;;;;;;;;19.60;42.50;;;;;;5032868;28;1110;-63
2021/03/03 13:14:45;;;;;;;;;;;19.70;42.40;;;;;;5032900;28;1388;-63
2021/03/03 13:17:10;;;;;;;;;;;19.70;42.30;;;;;;5013043;28;1670;-63
2021/03/03 13:19:36;;;;;;;;;;;19.80;42.20;;;;;;5013180;28;1890;-62
2021/03/03 13:22:01;;;;;;;;;;;19.80;42.20;;;;;;5013295;28;1596;-63
2021/03/03 13:24:27;;;;;;;;;;;19.90;42.10;;;;;;5013302;28;1738;-64
2021/03/03 13:26:52;;;;;;;;;;;19.90;42.00;;;;;;5013108;28;1348;-62
2021/03/03 13:29:18;;;;;;;;;;;20.00;42.10;;;;;;5025254;28;1371;-63
2021/03/03 13:31:43;;;;;;;;;;;20.00;42.00;;;;;;5023406;28;1749;-63
2021/03/03 13:34:09;;;;;;;;;;;20.00;42.00;;;;;;5022422;28;1250;-66
2021/03/03 13:36:34;;;;;;;;;;;20.10;42.10;;;;;;5032864;28;1668;-61
2021/03/03 13:39:00;;;;;;;;;;;20.10;42.00;;;;;;5024606;28;1719;-63
2021/03/03 13:41:25;;;;;;;;;;;20.10;42.00;;;;;;5023659;28;1969;-63
2021/03/03 13:43:51;;;;;;;;;;;20.10;42.00;;;;;;5016310;28;1527;-63
2021/03/03 13:46:16;;;;;;;;;;;20.10;42.00;;;;;;5011285;28;1304;-63
2021/03/03 13:48:42;;;;;;;;;;;20.10;42.00;;;;;;5025672;28;1411;-65
2021/03/03 13:51:07;;;;;;;;;;;20.10;42.00;;;;;;5019986;28;1281;-64
2021/03/03 13:53:33;;;;;;;;;;;20.20;42.10;;;;;;4998748;28;1457;-65
2021/03/03 13:55:58;;;;;;;;;;;20.20;42.10;;;;;;5027058;28;1671;-63
2021/03/03 13:58:23;;;;;;;;;;;20.20;42.10;;;;;;5032172;28;1761;-65
2021/03/03 14:00:49;;;;;;;;;;;20.20;42.10;;;;;;5032107;28;1954;-64
2021/03/03 14:03:17;;;;;;;;;;;20.20;42.10;;;;;;5025776;28;1666;-67
2021/03/03 14:05:43;;;;;;;;;;;20.20;42.10;;;;;;5022547;28;1357;-61
2021/03/03 14:08:08;;;;;;;;;;;20.20;42.10;;;;;;5015820;28;1310;-63
2021/03/03 14:10:33;;;;;;;;;;;20.30;42.20;;;;;;5018373;28;1282;-63
2021/03/03 14:12:59;;;;;;;;;;;20.20;42.10;;;;;;5022935;28;1176;-64
2021/03/03 14:15:24;;;;;;;;;;;20.30;42.20;;;;;;5018828;28;1358;-63
2021/03/03 14:17:50;;;;;;;;;;;20.30;42.20;;;;;;5017821;28;1379;-63
2021/03/03 14:20:15;;;;;;;;;;;20.30;42.20;;;;;;5017622;28;1953;-63
2021/03/03 14:22:41;;;;;;;;;;;20.30;42.20;;;;;;5017298;28;1019;-64
2021/03/03 14:25:07;;;;;;;;;;;20.30;42.30;;;;;;5000498;28;1299;-64
2021/03/03 14:27:33;;;;;;;;;;;20.30;42.30;;;;;;4999844;28;1315;-64
2021/03/03 14:29:58;;;;;;;;;;;20.30;42.30;;;;;;5023408;28;1284;-64